Klamath Falls, OR

9:58 AM PDT on August 27, 2014 (GMT -0700)
MAP OIT CAMPUS (P380) OR PSD | Change Station
CLOSE
Current Station
Personal Weather Station
Location: Rocky Point, OR
Elevation: 4563 ft
Nearby Weather Stations

Elev 4563 ft 42.26 °N, 121.78 °W | Updated 58 minutes ago

Clear
Clear
62 °F
Feels Like 62 °F
N
2
Wind Variable Wind from SSW
Gusts 0.0 mph

Today
High -- | Low -- °F
--% Chance of Precip.
Yesterday
High -- | Low -- °F
Precip. -- in
6:27 AM 7:49 PM
Waxing Crescent, 4% visible
Pressure 30.09 in
Visibility 10.0 miles
Clouds Clear
Dew Point 44 °F
Humidity 51%
Rainfall -999.00 in
Snow Depth 0 in
UV 5 out of 12
Pollen 6.30 out of 12
Air Quality Not available.
Flu Activity Not available.
METAR KLMT 271653Z 00000KT 10SM FU CLR 20/09 A3022 RMK AO2 SLP189 T02000089

More Conditions Fewer Conditions

Pressure 30.09 in
Visibility 10.0 miles
Clouds Clear
Dew Point 44 °F
Humidity 51%
Rainfall -999.00 in
Snow Depth 0 in
UV 5 out of 12
Pollen 6.30 out of 12
Air Quality Not available.
Flu Activity Not available.
METAR KLMT 271653Z 00000KT 10SM FU CLR 20/09 A3022 RMK AO2 SLP189 T02000089

More Conditions Fewer Conditions

10-Day Weather Forecast

Almanac

Astronomy

Aug. 27, 2014 Rise Set
Actual Time 6:27 AM PDT 7:49 PM PDT
Civil Twilight 5:58 AM PDT 8:18 PM PDT
Nautical Twilight 5:23 AM PDT 8:53 PM PDT
Astronomical Twilight 4:45 AM PDT 9:30 PM PDT
Moon 8:31 AM PDT 8:40 PM PDT
Length of Visible Light 14h 20m
Length of Day
13h 21m
Tomorrow will be 2m 41s shorter.
Waxing Crescent, 4% of the Moon is Illuminated
Today
Waxing Crescent
Sep 2
First Quarter
Sep 8
Full
Sep 15
Last Quarter
Sep 24
New

Today's Extremes

State Highs State Lows

Community

WunderPhotos

Upload Photos

1,747,727 photos uploaded!

Nearby

Snow Depth

Station Depth Elevation
Strawberry 0 in 5760 ft
Fourmile Lake 1 in 6000 ft
Billie Creek Divide 0 in 5300 ft
Cold Springs Camp 0 in 6100 ft
Fish Lake 1 in 4665 ft

Earthquake Activity

City Distance Mag. Time & Date
Hayfork, California 146 miles 2.7 2:57 PM PDT
2014-08-25
Minimum magnitude displayed is 2.5.

Coastal Water Temperatures

Place Temperature
No Stations Reporting

Nearby Weather Stations